Time;durP1;ratioP1;P1;durP2;ratioP2;P2;SDS_P1;SDS_P2;PMS_P1;PMS_P2;Temp;Humidity;BMP_temperature;BMP_pressure;BME280_temperature;BME280_humidity;BME280_pressure;Samples;Min_cycle;Max_cycle;Signal;HPM_P1;HPM_P2
2023/01/11 00:02:03;;;;;;;7.38;6.68;;;8.70;99.90;;;;;;5072371;28;20394;-69
2023/01/11 00:04:29;;;;;;;7.15;6.45;;;8.60;99.90;;;;;;5073381;28;20489;-69
2023/01/11 00:06:55;;;;;;;7.10;6.40;;;8.70;99.90;;;;;;5072289;28;20037;-69
2023/01/11 00:09:21;;;;;;;7.88;6.38;;;8.70;99.90;;;;;;5071949;28;20044;-69
2023/01/11 00:11:47;;;;;;;7.00;6.15;;;8.70;99.90;;;;;;5072198;28;20398;-69
2023/01/11 00:14:14;;;;;;;7.93;6.07;;;8.80;99.90;;;;;;5073039;28;20040;-69
2023/01/11 00:16:40;;;;;;;6.72;6.00;;;8.70;99.90;;;;;;5073583;28;20041;-69
2023/01/11 00:19:05;;;;;;;7.18;6.05;;;8.80;99.90;;;;;;5073652;28;20132;-69
2023/01/11 00:21:31;;;;;;;7.05;6.18;;;8.80;99.90;;;;;;5071905;28;20123;-69
2023/01/11 00:23:56;;;;;;;5.80;5.30;;;8.80;99.90;;;;;;5071850;28;20127;-69
2023/01/11 00:26:22;;;;;;;10.00;6.25;;;8.90;99.90;;;;;;5071807;28;20044;-69
2023/01/11 00:28:48;;;;;;;6.13;5.53;;;8.90;99.90;;;;;;5071661;28;20052;-69
2023/01/11 00:31:14;;;;;;;7.43;5.63;;;8.90;99.90;;;;;;5072017;28;20149;-69
2023/01/11 00:33:40;;;;;;;7.47;6.15;;;8.80;99.90;;;;;;5072378;28;20500;-69
2023/01/11 00:36:05;;;;;;;6.13;5.03;;;8.90;99.90;;;;;;5071987;28;20081;-69
2023/01/11 00:38:45;;;;;;;5.70;5.20;;;8.90;99.90;;;;;;5073123;28;20397;-69
2023/01/11 00:49:27;;;;;;;7.55;6.28;;;9.10;99.90;;;;;;5071390;28;20509;-69
2023/01/11 00:51:52;;;;;;;6.43;5.70;;;9.10;99.90;;;;;;5071634;28;20048;-69
2023/01/11 00:54:19;;;;;;;7.50;6.43;;;9.10;99.90;;;;;;5054881;28;20033;-69
2023/01/11 00:56:44;;;;;;;6.90;6.18;;;9.00;99.90;;;;;;5071551;28;20037;-69
2023/01/11 00:59:10;;;;;;;5.75;5.20;;;9.10;99.90;;;;;;5071443;28;20051;-69
2023/01/11 01:01:36;;;;;;;7.20;6.50;;;9.10;99.90;;;;;;5071449;28;20040;-70
2023/01/11 01:04:03;;;;;;;8.02;7.20;;;9.10;99.90;;;;;;5072914;28;20052;-69
2023/01/11 01:06:28;;;;;;;6.35;5.75;;;9.10;99.90;;;;;;5072666;28;20124;-69
2023/01/11 01:08:54;;;;;;;7.60;6.80;;;9.10;99.90;;;;;;5076025;28;20063;-69
2023/01/11 01:11:21;;;;;;;7.22;6.53;;;9.10;99.90;;;;;;5075300;28;20055;-69
2023/01/11 01:16:31;;;;;;;9.23;7.05;;;9.20;99.90;;;;;;5075224;28;20072;-69
2023/01/11 01:18:57;;;;;;;7.50;6.65;;;9.20;99.90;;;;;;5075051;28;20063;-69
2023/01/11 01:21:24;;;;;;;7.07;6.40;;;9.20;99.90;;;;;;5075090;28;20048;-69
2023/01/11 01:23:53;;;;;;;6.88;6.18;;;9.30;99.90;;;;;;5075037;28;20037;-69
2023/01/11 01:26:20;;;;;;;8.02;5.95;;;9.30;99.90;;;;;;5074983;28;20040;-69
2023/01/11 01:28:45;;;;;;;7.03;5.97;;;9.30;99.90;;;;;;5074982;28;20040;-69
2023/01/11 01:31:11;;;;;;;6.88;6.18;;;9.40;99.90;;;;;;5076404;28;20041;-69
2023/01/11 01:33:37;;;;;;;7.18;5.40;;;9.40;99.90;;;;;;5075107;28;20033;-69
2023/01/11 01:36:03;;;;;;;6.97;5.75;;;9.40;99.90;;;;;;5074792;28;20524;-69
2023/01/11 01:38:29;;;;;;;6.10;5.50;;;9.50;99.90;;;;;;5074990;28;20497;-69
2023/01/11 01:40:55;;;;;;;5.00;4.50;;;9.50;99.90;;;;;;5074963;28;20044;-69
2023/01/11 01:43:23;;;;;;;5.97;4.43;;;9.50;99.90;;;;;;5057980;28;20451;-69
2023/01/11 01:45:51;;;;;;;5.55;4.78;;;9.50;99.90;;;;;;5074652;28;20041;-69
2023/01/11 01:48:22;;;;;;;4.88;4.38;;;9.50;99.90;;;;;;5074462;28;20122;-69
2023/01/11 01:50:52;;;;;;;5.32;4.13;;;9.60;99.90;;;;;;5074592;28;20147;-69
2023/01/11 01:53:36;;;;;;;5.15;4.20;;;9.60;99.90;;;;;;5074538;28;20094;-69
2023/01/11 01:56:07;;;;;;;4.90;4.15;;;9.60;99.90;;;;;;5075978;28;20047;-69
2023/01/11 01:58:40;;;;;;;5.40;4.15;;;9.60;99.90;;;;;;5074671;28;20512;-69
2023/01/11 02:03:51;;;;;;;7.43;4.30;;;9.70;99.90;;;;;;5076002;28;20489;-69
2023/01/11 02:06:21;;;;;;;4.20;3.80;;;9.70;99.90;;;;;;5074571;28;20045;-69
2023/01/11 02:08:58;;;;;;;5.32;3.85;;;9.70;99.90;;;;;;5074085;28;20451;-69
2023/01/11 02:11:31;;;;;;;4.03;3.22;;;9.80;99.90;;;;;;5074257;28;20542;-69
2023/01/11 02:14:07;;;;;;;5.80;3.70;;;9.80;99.90;;;;;;5074468;28;20040;-69
2023/01/11 02:16:34;;;;;;;4.10;3.42;;;9.80;99.90;;;;;;5075390;28;20044;-69
2023/01/11 02:19:00;;;;;;;4.40;3.28;;;9.80;99.90;;;;;;5073123;28;20063;-69
2023/01/11 02:21:37;;;;;;;4.45;3.50;;;9.80;99.90;;;;;;5074153;28;20040;-70
2023/01/11 02:24:27;;;;;;;6.38;3.20;;;9.90;99.90;;;;;;5074270;28;20107;-69
2023/01/11 02:27:15;;;;;;;5.07;3.38;;;9.90;99.90;;;;;;5073930;28;20515;-69
2023/01/11 02:30:02;;;;;;;4.00;3.05;;;9.90;99.90;;;;;;5073865;28;20033;-69
2023/01/11 02:32:48;;;;;;;3.38;2.75;;;9.90;99.90;;;;;;5074130;28;20055;-70
2023/01/11 02:35:19;;;;;;;4.28;2.97;;;10.00;99.90;;;;;;5074068;28;20151;-70
2023/01/11 02:38:00;;;;;;;4.65;3.20;;;9.90;99.90;;;;;;5073616;28;20045;-69
2023/01/11 02:40:40;;;;;;;4.80;3.00;;;10.00;99.90;;;;;;5073962;28;20044;-69
2023/01/11 02:46:07;;;;;;;4.63;3.53;;;10.00;99.90;;;;;;5073560;28;20486;-69
2023/01/11 02:48:57;;;;;;;4.50;2.83;;;10.00;99.90;;;;;;5073199;28;20041;-69
2023/01/11 02:51:32;;;;;;;2.80;2.50;;;10.00;99.90;;;;;;5074963;28;20074;-69
2023/01/11 02:54:03;;;;;;;3.15;2.60;;;10.00;99.90;;;;;;5073411;28;20398;-69
2023/01/11 02:56:32;;;;;;;4.45;2.78;;;10.10;99.90;;;;;;5073346;28;20055;-69
2023/01/11 02:58:59;;;;;;;4.78;3.17;;;10.10;99.90;;;;;;5073210;28;20040;-69
2023/01/11 03:01:25;;;;;;;4.00;2.97;;;10.10;99.90;;;;;;5073227;28;20051;-69
2023/01/11 03:03:52;;;;;;;3.58;2.95;;;10.00;99.90;;;;;;5073499;28;20041;-69
2023/01/11 03:06:21;;;;;;;5.93;3.15;;;10.10;99.90;;;;;;5074391;28;20378;-69
2023/01/11 03:08:50;;;;;;;3.90;3.42;;;10.10;99.90;;;;;;5073083;28;20044;-69
2023/01/11 03:14:19;;;;;;;5.07;2.85;;;10.00;99.90;;;;;;5072987;28;20044;-69
2023/01/11 03:17:07;;;;;;;4.60;2.90;;;10.00;99.90;;;;;;5072884;28;20051;-69
2023/01/11 03:19:46;;;;;;;4.40;2.63;;;10.10;99.90;;;;;;5073149;28;20048;-69
2023/01/11 03:22:35;;;;;;;2.85;2.42;;;10.10;99.90;;;;;;5072835;28;20044;-69
2023/01/11 03:25:13;;;;;;;4.60;2.50;;;10.10;99.90;;;;;;5072713;28;20048;-69
2023/01/11 03:28:08;;;;;;;4.18;2.63;;;10.10;99.90;;;;;;5072665;28;20490;-70
2023/01/11 03:31:14;;;;;;;2.85;2.50;;;10.10;99.90;;;;;;5072278;28;20115;-70
2023/01/11 03:34:00;;;;;;;4.03;2.60;;;10.10;99.90;;;;;;5057604;28;20417;-70
2023/01/11 03:36:30;;;;;;;3.20;2.45;;;10.00;99.90;;;;;;5055863;28;20483;-70
2023/01/11 03:39:03;;;;;;;4.15;3.20;;;10.00;99.90;;;;;;5072701;28;20048;-70
2023/01/11 03:41:35;;;;;;;5.10;2.85;;;10.10;99.90;;;;;;5056070;28;20067;-70
2023/01/11 03:44:04;;;;;;;4.35;3.28;;;10.00;99.90;;;;;;5073702;28;20044;-70
2023/01/11 03:46:37;;;;;;;3.13;2.80;;;10.10;99.90;;;;;;5055964;28;20052;-70
2023/01/11 03:49:14;;;;;;;;;;;10.10;99.90;;;;;;5072473;28;20429;-70
2023/01/11 03:51:44;;;;;;;2.58;1.65;;;10.10;99.90;;;;;;5072273;28;19920;-70
2023/01/11 03:54:16;;;;;;;2.60;1.58;;;10.10;99.90;;;;;;5072520;28;20067;-70
2023/01/11 03:57:11;;;;;;;2.30;1.80;;;10.10;99.90;;;;;;5072252;28;20119;-69
2023/01/11 03:59:38;;;;;;;2.13;1.77;;;10.20;99.90;;;;;;5072187;28;20127;-69
2023/01/11 04:02:12;;;;;;;2.63;1.58;;;10.10;99.90;;;;;;5072498;28;20091;-69
2023/01/11 04:04:38;;;;;;;1.73;1.42;;;10.20;99.90;;;;;;5072163;28;20048;-69
2023/01/11 04:07:03;;;;;;;2.88;1.30;;;10.20;99.90;;;;;;5072093;28;20056;-69
2023/01/11 04:09:32;;;;;;;2.42;1.30;;;10.20;99.90;;;;;;5071912;28;20414;-69
2023/01/11 04:11:57;;;;;;;1.35;1.00;;;10.20;99.90;;;;;;5072021;28;20056;-69
2023/01/11 04:14:23;;;;;;;3.72;1.50;;;10.30;99.90;;;;;;5072004;28;20044;-69
2023/01/11 04:16:48;;;;;;;2.10;1.55;;;10.30;99.90;;;;;;5072112;28;20043;-69
2023/01/11 04:19:14;;;;;;;2.28;1.30;;;10.30;99.90;;;;;;5071877;28;20075;-69
2023/01/11 04:21:39;;;;;;;2.92;1.80;;;10.30;99.90;;;;;;5071876;28;20045;-69
2023/01/11 04:24:05;;;;;;;5.32;2.13;;;10.30;99.90;;;;;;5071881;28;20044;-69
2023/01/11 04:26:32;;;;;;;6.47;2.53;;;10.40;99.90;;;;;;5071845;28;20127;-69
2023/01/11 04:28:57;;;;;;;6.20;2.75;;;10.40;99.90;;;;;;5071693;28;20512;-69
2023/01/11 04:31:23;;;;;;;4.20;2.33;;;10.50;99.90;;;;;;5072084;28;20072;-69
2023/01/11 04:33:48;;;;;;;6.75;2.85;;;10.40;99.90;;;;;;5071774;28;20489;-69
2023/01/11 04:36:14;;;;;;;8.07;3.00;;;10.50;99.90;;;;;;5071759;28;20040;-69
2023/01/11 04:38:39;;;;;;;10.65;3.38;;;10.50;99.90;;;;;;5071700;28;20045;-69
2023/01/11 04:43:52;;;;;;;12.52;3.80;;;10.50;99.90;;;;;;5074687;28;20048;-69
2023/01/11 04:46:17;;;;;;;11.27;3.53;;;10.50;99.90;;;;;;5075774;28;20412;-69
2023/01/11 04:48:43;;;;;;;18.80;4.18;;;10.60;99.90;;;;;;5075706;28;20032;-69
2023/01/11 04:51:09;;;;;;;16.05;4.15;;;10.60;99.90;;;;;;5075763;28;20497;-69
2023/01/11 04:53:35;;;;;;;15.00;3.83;;;10.60;99.90;;;;;;5075943;28;20045;-69
2023/01/11 04:56:02;;;;;;;18.77;4.22;;;10.60;99.90;;;;;;5075872;28;20080;-69
2023/01/11 04:58:29;;;;;;;16.02;4.05;;;10.60;99.90;;;;;;5075748;28;20052;-69
2023/01/11 05:00:55;;;;;;;21.48;4.20;;;10.70;99.90;;;;;;5075518;28;20040;-69
2023/01/11 05:03:21;;;;;;;20.30;3.83;;;10.70;99.90;;;;;;5075492;28;20049;-69
2023/01/11 05:05:56;;;;;;;23.85;4.35;;;10.70;99.90;;;;;;5075712;28;20080;-69
2023/01/11 05:08:26;;;;;;;26.23;4.35;;;10.60;99.90;;;;;;5075483;28;20095;-69
2023/01/11 05:10:57;;;;;;;20.42;3.95;;;10.60;99.90;;;;;;5076576;28;20505;-69
2023/01/11 05:13:42;;;;;;;22.10;4.93;;;10.70;99.90;;;;;;5075242;28;20084;-69
2023/01/11 05:16:12;;;;;;;23.95;3.38;;;10.70;99.90;;;;;;5075287;28;20537;-69
2023/01/11 05:18:39;;;;;;;23.40;3.92;;;10.70;99.90;;;;;;5075094;28;20048;-69
2023/01/11 05:21:05;;;;;;;20.48;3.92;;;10.70;99.90;;;;;;5075150;28;20048;-69
2023/01/11 05:23:31;;;;;;;28.70;4.68;;;10.60;99.90;;;;;;5075317;28;20044;-69
2023/01/11 05:25:57;;;;;;;22.95;3.85;;;10.60;99.90;;;;;;5075023;28;20090;-69
2023/01/11 05:28:23;;;;;;;23.88;3.40;;;10.60;99.90;;;;;;5074832;28;20044;-69
2023/01/11 05:30:54;;;;;;;23.38;3.72;;;10.60;99.90;;;;;;5074937;28;20082;-69
2023/01/11 05:33:20;;;;;;;21.27;3.38;;;10.60;99.90;;;;;;5075155;28;20037;-69
2023/01/11 05:35:45;;;;;;;23.50;4.05;;;10.60;99.90;;;;;;5058452;28;20393;-69
2023/01/11 05:38:11;;;;;;;28.30;4.32;;;10.50;99.90;;;;;;5074736;28;20043;-69
2023/01/11 05:40:36;;;;;;;27.55;4.10;;;10.60;99.90;;;;;;5074746;28;20039;-69
2023/01/11 05:43:03;;;;;;;26.70;3.90;;;10.60;99.90;;;;;;5074743;28;20052;-69
2023/01/11 05:45:28;;;;;;;27.40;3.92;;;10.60;99.90;;;;;;5074687;28;20048;-69
2023/01/11 05:47:54;;;;;;;29.02;4.35;;;10.60;99.90;;;;;;5074751;28;20066;-70
2023/01/11 05:50:20;;;;;;;27.35;4.05;;;10.60;99.90;;;;;;5074689;28;20402;-70
2023/01/11 05:52:46;;;;;;;28.27;5.35;;;10.50;99.90;;;;;;5074547;28;20123;-69
2023/01/11 05:55:11;;;;;;;24.27;4.03;;;10.50;99.90;;;;;;5074442;28;20040;-69
2023/01/11 05:57:40;;;;;;;22.63;3.97;;;10.50;99.90;;;;;;5074409;28;20405;-69
2023/01/11 06:00:07;;;;;;;33.40;4.90;;;10.50;99.90;;;;;;5074372;28;20451;-69
2023/01/11 06:02:33;;;;;;;28.48;4.28;;;10.50;99.90;;;;;;5074321;28;20511;-69
2023/01/11 06:04:59;;;;;;;34.13;5.65;;;10.50;99.90;;;;;;5074609;28;20123;-69
2023/01/11 06:07:24;;;;;;;34.67;4.38;;;10.50;99.90;;;;;;5074238;28;20127;-69
2023/01/11 06:09:50;;;;;;;31.08;5.05;;;10.50;99.90;;;;;;5074187;28;20043;-69
2023/01/11 06:12:16;;;;;;;31.63;4.47;;;10.50;99.90;;;;;;5074174;28;20045;-69
2023/01/11 06:14:41;;;;;;;35.53;5.35;;;10.50;99.90;;;;;;5057761;28;20044;-69
2023/01/11 06:17:07;;;;;;;27.42;4.82;;;10.40;99.90;;;;;;5074378;28;20489;-69
2023/01/11 06:19:32;;;;;;;26.75;4.00;;;10.50;99.90;;;;;;5074075;28;20521;-70
2023/01/11 06:21:58;;;;;;;29.98;4.38;;;10.50;99.90;;;;;;5075303;28;20051;-70
2023/01/11 06:24:23;;;;;;;23.45;3.97;;;10.40;99.90;;;;;;5075200;28;20489;-70
2023/01/11 06:26:51;;;;;;;28.73;4.03;;;10.40;99.90;;;;;;5075164;28;20055;-70
2023/01/11 06:29:17;;;;;;;27.02;4.18;;;10.40;99.90;;;;;;5073727;28;20107;-70
2023/01/11 06:31:43;;;;;;;23.10;4.25;;;10.40;99.90;;;;;;5075061;28;20056;-70
2023/01/11 06:34:08;;;;;;;27.90;3.78;;;10.30;99.90;;;;;;5073792;28;20112;-69
2023/01/11 06:36:34;;;;;;;26.20;3.92;;;10.30;99.90;;;;;;5073743;28;20120;-69
2023/01/11 06:38:59;;;;;;;26.45;4.25;;;10.30;99.90;;;;;;5073637;28;20040;-70
2023/01/11 06:41:27;;;;;;;25.33;3.85;;;10.30;99.90;;;;;;5073638;28;20051;-70
2023/01/11 06:43:53;;;;;;;22.35;3.38;;;10.30;99.90;;;;;;5073579;28;20048;-69
2023/01/11 06:46:19;;;;;;;25.85;4.03;;;10.30;99.90;;;;;;5074781;28;20036;-69
2023/01/11 06:48:45;;;;;;;25.98;4.13;;;10.30;99.90;;;;;;5073413;28;20511;-69
2023/01/11 06:51:11;;;;;;;24.80;3.50;;;10.20;99.90;;;;;;5073774;28;20040;-69
2023/01/11 06:53:37;;;;;;;21.58;3.78;;;10.20;99.90;;;;;;5073658;28;20048;-69
2023/01/11 06:56:02;;;;;;;21.10;3.88;;;10.20;99.90;;;;;;5073342;28;20409;-69
2023/01/11 06:58:28;;;;;;;23.10;4.60;;;10.10;99.90;;;;;;5073465;28;20083;-70
2023/01/11 07:00:55;;;;;;;28.25;4.28;;;10.10;99.90;;;;;;5074507;28;20511;-70
2023/01/11 07:03:25;;;;;;;26.35;3.72;;;10.10;99.90;;;;;;5074689;28;20043;-70
2023/01/11 07:05:55;;;;;;;26.60;4.35;;;10.10;99.90;;;;;;5072381;28;20033;-70
2023/01/11 07:08:21;;;;;;;30.38;4.13;;;10.00;99.90;;;;;;5074447;28;20043;-70
2023/01/11 07:10:47;;;;;;;23.58;4.03;;;10.00;99.90;;;;;;5073023;28;20036;-69
2023/01/11 07:13:16;;;;;;;30.25;4.95;;;9.90;99.90;;;;;;5073229;28;20205;-69
2023/01/11 07:15:47;;;;;;;23.05;4.55;;;9.90;99.90;;;;;;5073205;28;20072;-69
2023/01/11 07:18:13;;;;;;;27.90;4.57;;;9.90;99.90;;;;;;5072883;28;20098;-69
2023/01/11 07:20:39;;;;;;;29.83;4.97;;;9.80;99.90;;;;;;5072832;28;20044;-69
2023/01/11 07:23:06;;;;;;;29.42;4.43;;;9.80;99.90;;;;;;5072795;28;20040;-69
2023/01/11 07:25:33;;;;;;;28.95;4.68;;;9.80;99.90;;;;;;5072749;28;20494;-69
2023/01/11 07:28:00;;;;;;;30.55;4.32;;;9.80;99.90;;;;;;5072770;28;20040;-69
2023/01/11 07:30:28;;;;;;;28.63;4.38;;;9.80;99.90;;;;;;5072661;28;20051;-69
2023/01/11 07:32:55;;;;;;;25.38;4.80;;;9.80;99.90;;;;;;5072575;28;20037;-69
2023/01/11 07:35:21;;;;;;;38.58;5.40;;;9.80;99.90;;;;;;5073068;28;20436;-69
2023/01/11 07:37:46;;;;;;;37.85;4.88;;;9.70;99.90;;;;;;5072440;28;20040;-69
2023/01/11 07:40:12;;;;;;;31.33;5.00;;;9.80;99.90;;;;;;5072439;28;20041;-69
2023/01/11 07:45:22;;;;;;;33.83;5.40;;;9.80;99.90;;;;;;5072443;28;20421;-70
2023/01/11 07:47:51;;;;;;;34.08;4.82;;;9.80;99.90;;;;;;5072298;28;20037;-70
2023/01/11 07:50:16;;;;;;;31.92;4.95;;;9.80;99.90;;;;;;5072168;28;20063;-70
2023/01/11 07:52:47;;;;;;;34.97;4.97;;;9.70;99.90;;;;;;5072529;28;20490;-70
2023/01/11 07:55:13;;;;;;;29.42;4.85;;;9.70;99.90;;;;;;5055595;28;20067;-70
2023/01/11 07:57:39;;;;;;;33.13;5.00;;;9.70;99.90;;;;;;5072145;28;20041;-70
2023/01/11 08:00:05;;;;;;;20.33;3.83;;;9.70;99.90;;;;;;5072174;28;20046;-70
2023/01/11 08:02:30;;;;;;;19.65;3.47;;;9.70;99.90;;;;;;5072212;28;20071;-70
2023/01/11 08:04:57;;;;;;;18.40;2.95;;;9.70;99.90;;;;;;5072369;28;20121;-70
2023/01/11 08:07:22;;;;;;;19.02;3.22;;;9.60;99.90;;;;;;5073815;28;20047;-70
2023/01/11 08:09:48;;;;;;;19.35;3.22;;;9.60;99.90;;;;;;5072036;28;20040;-70
2023/01/11 08:14:57;;;;;;;21.48;3.63;;;9.60;99.90;;;;;;5072278;28;20416;-70
2023/01/11 08:17:23;;;;;;;17.42;3.30;;;9.60;99.90;;;;;;5071842;28;20501;-69
2023/01/11 08:19:48;;;;;;;15.90;3.08;;;9.50;99.90;;;;;;5072137;28;20067;-69
2023/01/11 08:22:16;;;;;;;19.30;3.13;;;9.50;99.90;;;;;;5071949;28;20119;-69
2023/01/11 08:24:41;;;;;;;19.48;3.03;;;9.50;99.90;;;;;;5073516;28;20115;-69
2023/01/11 08:27:07;;;;;;;17.77;3.28;;;9.50;99.90;;;;;;5072315;28;20087;-69
2023/01/11 08:29:33;;;;;;;17.30;2.60;;;9.40;99.90;;;;;;5071747;28;20452;-70
2023/01/11 08:31:59;;;;;;;14.65;2.53;;;9.40;99.90;;;;;;5071800;28;20047;-70
2023/01/11 08:34:27;;;;;;;20.00;3.40;;;9.40;99.90;;;;;;5073091;28;20044;-70
2023/01/11 08:36:55;;;;;;;15.10;2.42;;;9.30;99.90;;;;;;5055095;28;20071;-70
2023/01/11 08:39:21;;;;;;;16.58;2.67;;;9.30;99.90;;;;;;5071719;28;20048;-70
2023/01/11 08:41:46;;;;;;;13.25;1.85;;;9.30;99.90;;;;;;5071953;28;20043;-70
2023/01/11 08:44:12;;;;;;;16.02;3.15;;;9.30;99.90;;;;;;5071689;28;20446;-70
2023/01/11 08:46:38;;;;;;;12.75;2.17;;;9.30;99.90;;;;;;5073073;28;20048;-70
2023/01/11 08:49:10;;;;;;;13.25;2.55;;;9.30;99.90;;;;;;5071500;28;20072;-70
2023/01/11 08:51:35;;;;;;;14.10;2.50;;;9.30;99.90;;;;;;5071638;28;20044;-70
2023/01/11 08:54:01;;;;;;;15.30;2.55;;;9.30;99.90;;;;;;5071843;28;20097;-70
2023/01/11 08:56:26;;;;;;;12.45;1.88;;;9.30;99.90;;;;;;5072753;28;20043;-69
2023/01/11 08:58:52;;;;;;;14.00;2.38;;;9.30;99.90;;;;;;5071488;28;20059;-70
2023/01/11 09:01:17;;;;;;;14.02;2.50;;;9.30;99.90;;;;;;5072750;28;20047;-67
2023/01/11 09:03:43;;;;;;;13.88;2.33;;;9.30;99.90;;;;;;5071743;28;20051;-67
2023/01/11 09:06:09;;;;;;;16.58;2.20;;;9.30;99.90;;;;;;5071453;28;20405;-67
2023/01/11 09:08:34;;;;;;;15.52;2.72;;;9.20;99.90;;;;;;5054608;28;20123;-67
2023/01/11 09:11:00;;;;;;;13.45;2.08;;;9.30;99.90;;;;;;5071668;28;20094;-68
2023/01/11 09:13:26;;;;;;;12.23;1.95;;;9.30;99.90;;;;;;5071665;28;20393;-67
2023/01/11 09:15:58;;;;;;;13.70;2.03;;;9.20;99.90;;;;;;5071396;28;20481;-67
2023/01/11 09:18:25;;;;;;;13.02;2.25;;;9.20;99.90;;;;;;5073063;28;20131;-67
2023/01/11 09:20:52;;;;;;;14.32;2.30;;;9.20;99.90;;;;;;5071346;28;20560;-67
2023/01/11 09:23:17;;;;;;;14.93;2.17;;;9.20;99.90;;;;;;5071581;28;20107;-67
2023/01/11 09:25:43;;;;;;;17.88;2.05;;;9.10;99.90;;;;;;5071246;28;20489;-67
2023/01/11 09:28:09;;;;;;;13.57;2.08;;;9.10;99.90;;;;;;5071145;28;20036;-67
2023/01/11 09:30:37;;;;;;;14.23;2.20;;;9.10;99.90;;;;;;5075224;28;20048;-67
2023/01/11 09:33:05;;;;;;;14.18;1.90;;;9.10;99.90;;;;;;5075188;28;20063;-67
2023/01/11 09:35:31;;;;;;;13.18;2.17;;;9.10;99.90;;;;;;5074891;28;20070;-67
2023/01/11 09:37:57;;;;;;;14.05;2.47;;;9.10;99.90;;;;;;5074806;28;20124;-67
2023/01/11 09:40:45;;;;;;;16.05;3.13;;;9.10;99.90;;;;;;5074770;28;20052;-67
2023/01/11 09:43:15;;;;;;;15.40;2.13;;;9.20;99.90;;;;;;5074669;28;20537;-67
2023/01/11 09:45:45;;;;;;;14.48;2.58;;;9.20;99.90;;;;;;5074678;28;20044;-67
2023/01/11 09:48:27;;;;;;;11.38;2.40;;;9.30;99.90;;;;;;5075894;28;20044;-67
2023/01/11 09:50:53;;;;;;;18.88;2.58;;;9.30;99.90;;;;;;5074649;28;20047;-67
2023/01/11 09:53:36;;;;;;;11.80;2.58;;;9.40;99.90;;;;;;5074582;28;20048;-67
2023/01/11 09:56:06;;;;;;;18.17;2.47;;;9.40;99.90;;;;;;5074544;28;20421;-67
2023/01/11 09:58:59;;;;;;;14.20;2.00;;;9.50;99.90;;;;;;5074443;28;20044;-67
2023/01/11 10:01:44;;;;;;;19.20;3.00;;;9.50;99.90;;;;;;5074469;28;20053;-67
2023/01/11 10:04:16;;;;;;;23.55;3.65;;;9.50;99.90;;;;;;5074646;28;20051;-67
2023/01/11 10:07:10;;;;;;;18.95;2.95;;;9.60;99.90;;;;;;5074643;28;20052;-67
2023/01/11 10:09:50;;;;;;;;;;;9.60;99.90;;;;;;5074601;28;20098;-67
2023/01/11 10:12:59;;;;;;;19.90;2.78;;;9.60;99.90;;;;;;5075552;28;19920;-67
2023/01/11 10:15:59;;;;;;;17.25;2.53;;;9.70;99.90;;;;;;5074157;28;20056;-67
2023/01/11 10:18:43;;;;;;;16.27;2.80;;;9.80;99.90;;;;;;5074054;28;20497;-67
2023/01/11 10:21:40;;;;;;;22.30;2.88;;;9.80;99.90;;;;;;5074367;28;20044;-67
2023/01/11 10:24:29;;;;;;;15.85;3.42;;;9.90;99.90;;;;;;5074278;28;20044;-67
2023/01/11 10:27:02;;;;;;;24.05;3.53;;;10.00;99.90;;;;;;5074016;28;20045;-67
2023/01/11 10:29:46;;;;;;;21.88;3.70;;;10.00;99.90;;;;;;5073805;28;20036;-67
2023/01/11 10:32:33;;;;;;;24.73;3.95;;;10.10;99.90;;;;;;5073889;28;20040;-67
2023/01/11 10:35:46;;;;;;;20.58;3.50;;;10.10;99.90;;;;;;5073849;28;20440;-67
2023/01/11 10:39:02;;;;;;;18.52;3.75;;;10.10;99.90;;;;;;5057573;28;20060;-68
2023/01/11 10:41:53;;;;;;;18.35;3.92;;;10.00;99.90;;;;;;5063955;28;20049;-68
2023/01/11 10:44:30;;;;;;;23.60;3.67;;;9.90;99.90;;;;;;5057521;28;20044;-68
2023/01/11 10:46:58;;;;;;;17.58;3.38;;;10.00;99.90;;;;;;5073566;28;20481;-68
2023/01/11 10:49:32;;;;;;;17.33;2.58;;;10.10;99.90;;;;;;5073227;28;20040;-68
2023/01/11 10:52:12;;;;;;;26.80;3.95;;;10.10;99.90;;;;;;5073447;28;20512;-68
2023/01/11 10:54:38;;;;;;;18.85;3.08;;;10.20;99.90;;;;;;5073836;28;20068;-68
2023/01/11 10:57:25;;;;;;;19.42;3.90;;;10.20;99.90;;;;;;5073720;28;20048;-68
2023/01/11 11:00:17;;;;;;;15.43;3.35;;;10.30;99.90;;;;;;5073573;28;20563;-68
2023/01/11 11:02:52;;;;;;;23.63;3.75;;;10.30;99.90;;;;;;5073328;28;20509;-68
2023/01/11 11:05:25;;;;;;;23.55;4.30;;;10.30;99.90;;;;;;5073211;28;20051;-68
2023/01/11 11:07:56;;;;;;;28.15;4.00;;;10.40;99.90;;;;;;5073289;28;20489;-68
2023/01/11 11:10:40;;;;;;;21.50;3.60;;;10.30;99.90;;;;;;5073163;28;20037;-68
2023/01/11 11:13:06;;;;;;;25.13;4.18;;;10.40;99.90;;;;;;5073045;28;20079;-68
2023/01/11 11:15:49;;;;;;;22.50;3.85;;;10.40;99.90;;;;;;5073281;28;20036;-68
2023/01/11 11:18:15;;;;;;;24.17;3.80;;;10.40;99.90;;;;;;5073260;28;20040;-68
2023/01/11 11:20:42;;;;;;;22.30;3.85;;;10.50;99.90;;;;;;5072862;28;20378;-67
2023/01/11 11:23:15;;;;;;;22.92;3.85;;;10.50;99.90;;;;;;5074045;28;20080;-67
2023/01/11 11:25:56;;;;;;;14.45;3.30;;;10.40;99.90;;;;;;5072836;28;20041;-67
2023/01/11 11:28:22;;;;;;;23.52;4.05;;;10.30;99.90;;;;;;5072656;28;20167;-68
2023/01/11 11:30:52;;;;;;;19.20;4.05;;;10.30;99.90;;;;;;5073019;28;20128;-68
2023/01/11 11:33:27;;;;;;;22.02;3.47;;;10.40;99.90;;;;;;5072853;28;20397;-68
2023/01/11 11:36:00;;;;;;;16.88;3.05;;;10.70;99.90;;;;;;5072650;28;20040;-68
2023/01/11 11:38:30;;;;;;;;;;;10.90;99.90;;;;;;5072948;28;20045;-68
2023/01/11 11:41:03;;;;;;;16.10;3.83;;;10.80;99.90;;;;;;5072493;28;19923;-68
2023/01/11 11:43:31;;;;;;;24.50;3.28;;;10.80;99.90;;;;;;5072540;28;20044;-68
2023/01/11 11:46:02;;;;;;;20.80;3.63;;;10.70;99.90;;;;;;5072460;28;20040;-68
2023/01/11 11:48:30;;;;;;;18.98;3.25;;;10.70;99.90;;;;;;5073574;28;20044;-67
2023/01/11 11:50:59;;;;;;;15.73;3.10;;;10.80;99.90;;;;;;5072223;28;20040;-67
2023/01/11 11:53:33;;;;;;;23.55;4.15;;;11.10;99.90;;;;;;5072198;28;20040;-68
2023/01/11 11:56:06;;;;;;;21.30;4.18;;;11.30;99.90;;;;;;5072294;28;20048;-69
2023/01/11 11:58:32;;;;;;;17.80;2.90;;;11.30;99.90;;;;;;5072342;28;20040;-68
2023/01/11 12:00:58;;;;;;;17.83;3.45;;;11.30;99.90;;;;;;5073409;28;20037;-67
2023/01/11 12:03:29;;;;;;;20.15;4.35;;;11.10;99.90;;;;;;5072234;28;20516;-67
2023/01/11 12:06:06;;;;;;;19.45;3.60;;;11.00;99.90;;;;;;5072171;28;20044;-67
2023/01/11 12:08:34;;;;;;;17.58;3.55;;;11.00;99.90;;;;;;5072248;28;20090;-67
2023/01/11 12:11:03;;;;;;;15.52;3.40;;;11.00;99.90;;;;;;5072138;28;20470;-67
2023/01/11 12:13:35;;;;;;;21.88;4.10;;;11.10;99.90;;;;;;5072453;28;20489;-67
2023/01/11 12:16:16;;;;;;;18.42;3.17;;;11.30;99.90;;;;;;5072439;28;20552;-67
2023/01/11 12:18:42;;;;;;;24.98;3.88;;;11.60;99.90;;;;;;5072290;28;20067;-67
2023/01/11 12:21:21;;;;;;;20.55;3.72;;;12.00;99.90;;;;;;5072002;28;20497;-67
2023/01/11 12:24:06;;;;;;;22.13;4.28;;;12.20;99.90;;;;;;5072213;28;20075;-67
2023/01/11 12:27:11;;;;;;;18.17;3.22;;;12.00;99.90;;;;;;5071946;28;20041;-67
2023/01/11 12:29:43;;;;;;;23.63;3.75;;;11.70;99.90;;;;;;5071891;28;20045;-68
2023/01/11 12:32:21;;;;;;;19.65;3.70;;;11.50;99.90;;;;;;5072195;28;20048;-67
2023/01/11 12:35:15;;;;;;;19.17;3.72;;;11.60;99.90;;;;;;5072105;28;20127;-68
2023/01/11 12:37:59;;;;;;;23.10;4.15;;;11.50;99.90;;;;;;5071766;28;20119;-68
2023/01/11 12:40:39;;;;;;;;;;;11.60;99.90;;;;;;5072143;28;20409;-68
2023/01/11 12:43:31;;;;;;;22.10;3.50;;;11.40;99.90;;;;;;5055017;28;20368;-70
2023/01/11 12:46:15;;;;;;;18.15;3.28;;;11.10;99.90;;;;;;5071720;28;20489;-68
2023/01/11 12:49:12;;;;;;;21.90;4.20;;;10.90;99.90;;;;;;5071460;28;20094;-68
2023/01/11 12:51:43;;;;;;;25.63;3.63;;;10.90;99.90;;;;;;5071693;28;20051;-68
2023/01/11 12:54:28;;;;;;;20.75;3.42;;;10.80;99.90;;;;;;5071636;28;20044;-68
2023/01/11 12:57:28;;;;;;;19.25;3.22;;;10.80;99.90;;;;;;5071551;28;20490;-68
2023/01/11 13:00:32;;;;;;;21.23;3.78;;;10.80;99.90;;;;;;5071596;28;20055;-68
2023/01/11 13:03:33;;;;;;;23.08;4.07;;;10.70;99.90;;;;;;5065212;28;20049;-68
2023/01/11 13:06:32;;;;;;;18.60;3.72;;;10.60;99.90;;;;;;5075515;28;20516;-68
2023/01/11 13:09:34;;;;;;;18.77;3.80;;;10.40;99.90;;;;;;5075915;28;20036;-68
2023/01/11 13:12:15;;;;;;;22.20;4.13;;;10.30;99.90;;;;;;5075650;28;20053;-69
2023/01/11 13:14:52;;;;;;;26.48;4.70;;;10.20;99.90;;;;;;5075361;28;20040;-69
2023/01/11 13:17:45;;;;;;;19.15;3.35;;;10.10;99.90;;;;;;5075242;28;20040;-69
2023/01/11 13:20:48;;;;;;;26.15;3.67;;;10.10;99.90;;;;;;5075557;28;20102;-69
2023/01/11 13:23:31;;;;;;;25.30;4.85;;;10.10;99.90;;;;;;5075269;28;20055;-69
2023/01/11 13:26:05;;;;;;;27.90;4.03;;;10.00;99.90;;;;;;5075147;28;20048;-68
2023/01/11 13:28:42;;;;;;;27.63;4.20;;;10.00;99.90;;;;;;5075187;28;20239;-69
2023/01/11 13:31:11;;;;;;;26.92;3.95;;;9.90;99.90;;;;;;5076794;28;20439;-68
2023/01/11 13:33:42;;;;;;;27.90;4.18;;;9.90;99.90;;;;;;5074945;28;20044;-68
2023/01/11 13:36:14;;;;;;;33.78;4.97;;;9.80;99.90;;;;;;5075178;28;20137;-68
2023/01/11 13:38:44;;;;;;;22.10;3.55;;;9.80;99.90;;;;;;5074800;28;20048;-68